Time;durP1;ratioP1;P1;durP2;ratioP2;P2;SDS_P1;SDS_P2;PMS_P1;PMS_P2;Temp;Humidity;BMP_temperature;BMP_pressure;BME280_temperature;BME280_humidity;BME280_pressure;Samples;Min_cycle;Max_cycle;Signal;HPM_P1;HPM_P2
2021/08/27 00:00:44;;;;;;;5.30;3.78;;;13.50;99.90;;;;;;5068787;28;20443;-78
2021/08/27 00:03:11;;;;;;;5.07;3.23;;;13.40;99.90;;;;;;5068461;28;20366;-80
2021/08/27 00:05:36;;;;;;;6.63;3.58;;;13.50;99.90;;;;;;5071333;28;20414;-79
2021/08/27 00:08:02;;;;;;;4.27;3.87;;;13.50;99.90;;;;;;5071257;28;20424;-78
2021/08/27 00:10:28;;;;;;;6.18;3.83;;;13.40;99.90;;;;;;5071412;28;20427;-82
2021/08/27 00:12:53;;;;;;;7.33;4.40;;;13.40;99.90;;;;;;5071462;28;20382;-79
2021/08/27 00:15:19;;;;;;;6.93;4.30;;;13.50;99.90;;;;;;5071257;28;20366;-79
2021/08/27 00:17:44;;;;;;;7.03;4.80;;;13.50;99.90;;;;;;5071170;28;20398;-81
2021/08/27 00:20:11;;;;;;;5.87;4.37;;;13.50;99.90;;;;;;5070685;28;20457;-79
2021/08/27 00:22:36;;;;;;;6.73;4.70;;;13.50;99.90;;;;;;5053176;28;20744;-80
2021/08/27 00:25:04;;;;;;;6.23;4.93;;;13.40;99.90;;;;;;5070750;28;20374;-78
2021/08/27 00:27:30;;;;;;;6.75;5.03;;;13.50;99.90;;;;;;5070625;28;20385;-81
2021/08/27 00:29:55;;;;;;;9.10;5.40;;;13.50;99.90;;;;;;5070857;28;20374;-80
2021/08/27 00:32:21;;;;;;;9.67;5.10;;;13.50;99.90;;;;;;5071093;28;20787;-79
2021/08/27 00:34:47;;;;;;;7.93;5.45;;;13.50;99.90;;;;;;5052957;28;20721;-79
2021/08/27 00:37:13;;;;;;;7.32;5.20;;;13.40;99.90;;;;;;5070949;28;20422;-80
2021/08/27 00:39:38;;;;;;;7.90;5.77;;;13.50;99.90;;;;;;5052775;28;20386;-81
2021/08/27 00:42:04;;;;;;;8.87;5.73;;;13.50;99.90;;;;;;5070796;28;20465;-82
2021/08/27 00:44:30;;;;;;;7.72;5.97;;;13.50;99.90;;;;;;5070986;28;20382;-81
2021/08/27 00:46:56;;;;;;;11.05;7.35;;;13.50;99.90;;;;;;5070811;28;20374;-81
2021/08/27 00:49:21;;;;;;;11.50;9.27;;;13.50;99.90;;;;;;5070997;28;20378;-81
2021/08/27 00:51:47;;;;;;;14.98;10.63;;;13.50;99.90;;;;;;5071006;28;20378;-80
2021/08/27 00:54:13;;;;;;;12.85;11.00;;;13.40;99.90;;;;;;5070720;28;20370;-80
2021/08/27 00:56:38;;;;;;;11.87;9.50;;;13.40;99.90;;;;;;5070996;28;20417;-82
2021/08/27 00:59:04;;;;;;;8.73;7.30;;;13.50;99.90;;;;;;5070606;28;20380;-82
2021/08/27 01:01:30;;;;;;;9.10;6.10;;;13.50;99.90;;;;;;5070689;28;20362;-79
2021/08/27 01:03:57;;;;;;;6.73;5.60;;;13.50;99.90;;;;;;5070864;28;20736;-82
2021/08/27 01:06:32;;;;;;;7.25;5.40;;;13.40;99.90;;;;;;5070561;28;20378;-78
2021/08/27 01:09:03;;;;;;;7.18;5.80;;;13.50;99.90;;;;;;5051904;28;20398;-79
2021/08/27 01:11:35;;;;;;;7.18;5.70;;;13.50;99.90;;;;;;5070779;28;20386;-81
2021/08/27 01:14:09;;;;;;;8.20;5.43;;;13.60;99.90;;;;;;5070637;28;20469;-80
2021/08/27 01:16:44;;;;;;;8.90;5.05;;;13.50;99.90;;;;;;5069203;28;20397;-80
2021/08/27 01:19:41;;;;;;;10.00;5.05;;;13.50;99.90;;;;;;5070348;28;20407;-80
2021/08/27 01:22:37;;;;;;;4.65;4.25;;;13.50;99.90;;;;;;5070246;28;20377;-78
2021/08/27 01:25:04;;;;;;;6.18;4.68;;;13.50;99.90;;;;;;5070279;28;20386;-79
2021/08/27 01:27:30;;;;;;;5.55;4.65;;;13.40;99.90;;;;;;5051779;28;20461;-80
2021/08/27 01:30:02;;;;;;;6.90;4.78;;;13.50;99.90;;;;;;5069744;28;20369;-80
2021/08/27 01:32:41;;;;;;;6.50;5.10;;;13.60;99.90;;;;;;5070271;28;20389;-81
2021/08/27 01:35:08;;;;;;;9.07;4.50;;;13.60;99.90;;;;;;5052039;28;20398;-78
2021/08/27 01:37:35;;;;;;;5.03;4.50;;;13.60;99.90;;;;;;5051720;28;20979;-83
2021/08/27 01:40:03;;;;;;;6.13;4.78;;;13.50;99.90;;;;;;5050879;28;20386;-79
2021/08/27 01:42:29;;;;;;;6.03;4.57;;;13.60;99.90;;;;;;5069667;28;20883;-79
2021/08/27 01:44:58;;;;;;;4.93;4.13;;;13.60;99.90;;;;;;5069477;28;20917;-79
2021/08/27 01:47:31;;;;;;;5.07;4.10;;;13.70;99.90;;;;;;5069526;28;20749;-81
2021/08/27 01:49:58;;;;;;;5.15;3.97;;;13.70;99.90;;;;;;5068945;28;20477;-81
2021/08/27 01:52:24;;;;;;;5.03;4.03;;;13.70;99.90;;;;;;5069353;28;20733;-83
2021/08/27 01:54:50;;;;;;;5.53;4.20;;;13.70;99.90;;;;;;5069646;28;20381;-80
2021/08/27 01:57:17;;;;;;;6.18;4.30;;;13.70;99.90;;;;;;5069501;28;20460;-80
2021/08/27 01:59:44;;;;;;;6.18;4.18;;;13.60;99.90;;;;;;5069583;28;20401;-81
2021/08/27 02:02:13;;;;;;;4.32;3.70;;;13.70;99.90;;;;;;5051539;28;20386;-81
2021/08/27 02:04:40;;;;;;;5.70;4.20;;;13.70;99.90;;;;;;5069756;28;20378;-80
2021/08/27 02:07:07;;;;;;;5.07;3.80;;;13.70;99.90;;;;;;5069129;28;20385;-79
2021/08/27 02:09:34;;;;;;;5.82;4.03;;;13.70;99.90;;;;;;5069233;28;20393;-79
2021/08/27 02:12:01;;;;;;;5.20;3.50;;;13.70;99.90;;;;;;5069539;28;20405;-79
2021/08/27 02:14:27;;;;;;;5.53;3.53;;;13.80;99.90;;;;;;5069085;28;20382;-79
2021/08/27 02:16:53;;;;;;;4.65;3.35;;;13.70;99.90;;;;;;5069143;28;20413;-80
2021/08/27 02:19:19;;;;;;;4.25;3.65;;;13.70;99.90;;;;;;5068874;28;20408;-79
2021/08/27 02:21:49;;;;;;;5.40;3.42;;;13.60;99.90;;;;;;5068833;28;20414;-82
2021/08/27 02:24:20;;;;;;;3.87;3.57;;;13.70;99.90;;;;;;5069230;28;20415;-79
2021/08/27 02:26:46;;;;;;;4.88;3.33;;;13.70;99.90;;;;;;5068715;28;20381;-81
2021/08/27 02:29:15;;;;;;;3.50;3.00;;;13.60;99.90;;;;;;5050787;28;20379;-81
2021/08/27 02:31:48;;;;;;;5.03;3.47;;;13.70;99.90;;;;;;5069102;28;20394;-81
2021/08/27 02:34:16;;;;;;;5.38;3.70;;;13.70;99.90;;;;;;5068423;28;20382;-81
2021/08/27 02:36:43;;;;;;;4.80;3.67;;;13.70;99.90;;;;;;5068868;28;20496;-81
2021/08/27 02:39:12;;;;;;;4.30;3.70;;;13.60;99.90;;;;;;5050789;28;20374;-80
2021/08/27 02:41:38;;;;;;;4.65;3.70;;;13.70;99.90;;;;;;5068725;28;20382;-79
2021/08/27 02:44:04;;;;;;;7.50;4.60;;;13.60;99.90;;;;;;5050492;28;20388;-79
2021/08/27 02:46:30;;;;;;;5.18;4.50;;;13.50;99.90;;;;;;5069098;28;20373;-80
2021/08/27 02:48:56;;;;;;;6.47;4.63;;;13.50;99.90;;;;;;5068689;28;20378;-81
2021/08/27 02:51:28;;;;;;;4.60;4.20;;;13.50;99.90;;;;;;5051063;28;20496;-80
2021/08/27 02:53:59;;;;;;;5.93;4.70;;;13.50;99.90;;;;;;5069358;28;20382;-80
2021/08/27 02:56:34;;;;;;;5.00;4.55;;;13.50;99.90;;;;;;5069182;28;20401;-80
2021/08/27 02:59:01;;;;;;;5.35;4.57;;;13.60;99.90;;;;;;5069033;28;20879;-79
2021/08/27 03:01:36;;;;;;;4.80;4.28;;;13.60;99.90;;;;;;5069048;28;20847;-82
2021/08/27 03:04:02;;;;;;;4.68;3.90;;;13.60;99.90;;;;;;5051202;28;20382;-78
2021/08/27 03:06:30;;;;;;;5.07;3.70;;;13.70;99.90;;;;;;5069739;28;20375;-81
2021/08/27 03:09:08;;;;;;;4.60;3.60;;;13.70;99.90;;;;;;5069415;28;20390;-80
2021/08/27 03:11:41;;;;;;;5.40;3.57;;;13.70;99.90;;;;;;5050924;28;20390;-81
2021/08/27 03:14:35;;;;;;;4.60;3.30;;;13.70;99.90;;;;;;5068635;28;20385;-79
2021/08/27 03:17:05;;;;;;;3.90;3.17;;;13.70;99.90;;;;;;5069062;28;20402;-80
2021/08/27 03:19:43;;;;;;;4.18;3.35;;;13.70;99.90;;;;;;5051075;28;20476;-77
2021/08/27 03:22:16;;;;;;;3.50;3.20;;;13.70;99.90;;;;;;5069659;28;20374;-78
2021/08/27 03:24:50;;;;;;;3.53;3.22;;;13.60;99.90;;;;;;5069235;28;20856;-80
2021/08/27 03:27:20;;;;;;;3.70;2.97;;;13.60;99.90;;;;;;5068963;28;20456;-82
2021/08/27 03:29:52;;;;;;;3.35;2.90;;;13.70;99.90;;;;;;5070228;28;20501;-82
2021/08/27 03:32:19;;;;;;;4.05;3.00;;;13.70;99.90;;;;;;5051121;28;20386;-78
2021/08/27 03:34:45;;;;;;;4.50;2.63;;;13.70;99.90;;;;;;5068240;28;20445;-82
2021/08/27 03:37:12;;;;;;;3.80;3.00;;;13.80;99.90;;;;;;5068194;28;20458;-79
2021/08/27 03:39:39;;;;;;;4.93;2.70;;;13.80;99.90;;;;;;5069657;28;20382;-81
2021/08/27 03:42:05;;;;;;;3.38;2.45;;;13.80;99.90;;;;;;5054389;28;20382;-81
2021/08/27 03:44:33;;;;;;;3.55;2.83;;;13.70;99.90;;;;;;5054161;28;20412;-81
2021/08/27 03:47:01;;;;;;;3.95;3.10;;;13.70;99.90;;;;;;5072385;28;20382;-81
2021/08/27 03:49:27;;;;;;;3.10;2.78;;;13.60;99.90;;;;;;5053561;28;20732;-79
2021/08/27 03:51:54;;;;;;;4.85;3.10;;;13.60;99.90;;;;;;5054042;28;20393;-78
2021/08/27 03:54:21;;;;;;;4.40;2.88;;;13.60;99.90;;;;;;5053666;28;20382;-80
2021/08/27 03:56:48;;;;;;;3.35;2.80;;;13.70;99.90;;;;;;5053996;28;20405;-82
2021/08/27 03:59:17;;;;;;;3.13;2.60;;;13.70;99.90;;;;;;5054095;28;20413;-82
2021/08/27 04:01:44;;;;;;;3.17;2.72;;;13.70;99.90;;;;;;5071342;28;20397;-80
2021/08/27 04:04:19;;;;;;;5.63;2.88;;;13.70;99.90;;;;;;5071517;28;20385;-80
2021/08/27 04:06:56;;;;;;;4.07;2.70;;;13.70;99.90;;;;;;5072061;28;20375;-83
2021/08/27 04:09:22;;;;;;;3.85;3.00;;;13.70;99.90;;;;;;5053770;28;20396;-80
2021/08/27 04:11:48;;;;;;;3.57;3.00;;;13.70;99.90;;;;;;5053458;28;20494;-78
2021/08/27 04:14:14;;;;;;;4.97;2.80;;;13.70;99.90;;;;;;5071609;28;20426;-80
2021/08/27 04:16:46;;;;;;;2.87;2.50;;;13.70;99.90;;;;;;5071941;28;20397;-79
2021/08/27 04:19:12;;;;;;;3.70;2.70;;;13.80;99.90;;;;;;5053567;28;20371;-80
2021/08/27 04:21:39;;;;;;;3.88;2.65;;;13.70;99.90;;;;;;5053282;28;20389;-82
2021/08/27 04:24:05;;;;;;;3.50;2.70;;;13.70;99.90;;;;;;5071331;28;20781;-80
2021/08/27 04:26:31;;;;;;;3.37;2.23;;;13.80;99.90;;;;;;5071435;28;20405;-78
2021/08/27 04:28:57;;;;;;;4.25;2.60;;;13.90;99.90;;;;;;5071035;28;20410;-79
2021/08/27 04:31:23;;;;;;;3.73;2.97;;;13.80;99.90;;;;;;5071515;28;20404;-79
2021/08/27 04:33:48;;;;;;;3.00;2.60;;;13.80;99.90;;;;;;5071713;28;20376;-78
2021/08/27 04:36:14;;;;;;;2.77;2.30;;;13.80;99.90;;;;;;5071145;28;20856;-80
2021/08/27 04:38:40;;;;;;;2.50;2.30;;;13.90;99.90;;;;;;5071617;28;20413;-80
2021/08/27 04:41:06;;;;;;;3.30;2.42;;;14.00;99.90;;;;;;5071212;28;20851;-77
2021/08/27 04:43:31;;;;;;;4.05;2.50;;;14.00;99.90;;;;;;5070525;28;20381;-79
2021/08/27 04:45:57;;;;;;;3.30;2.60;;;14.10;99.90;;;;;;5050529;28;20405;-81
2021/08/27 04:48:24;;;;;;;2.17;1.98;;;14.10;99.90;;;;;;5051490;28;20755;-77
2021/08/27 04:50:50;;;;;;;2.53;2.28;;;14.30;99.90;;;;;;5052773;28;20378;-78
2021/08/27 04:53:15;;;;;;;2.95;2.03;;;14.20;99.90;;;;;;5071027;28;20457;-79
2021/08/27 04:55:42;;;;;;;2.77;2.30;;;14.30;99.90;;;;;;5052653;28;20390;-82
2021/08/27 04:58:08;;;;;;;3.42;2.20;;;14.30;99.90;;;;;;5069551;28;20422;-82
2021/08/27 05:00:33;;;;;;;2.40;2.20;;;14.30;99.90;;;;;;5069862;28;20373;-78
2021/08/27 05:02:59;;;;;;;2.50;2.10;;;14.40;99.90;;;;;;5069511;28;20382;-82
2021/08/27 05:05:25;;;;;;;3.30;2.20;;;14.40;99.90;;;;;;5070209;28;20872;-79
2021/08/27 05:07:50;;;;;;;2.73;2.20;;;14.40;99.90;;;;;;5067739;28;20913;-79
2021/08/27 05:10:16;;;;;;;3.95;1.92;;;14.50;99.90;;;;;;5052301;28;20410;-78
2021/08/27 05:12:42;;;;;;;2.10;1.90;;;14.50;99.90;;;;;;5069504;28;20366;-82
2021/08/27 05:15:08;;;;;;;2.60;2.20;;;14.60;99.90;;;;;;5069781;28;20390;-80
2021/08/27 05:17:35;;;;;;;2.00;1.90;;;14.60;99.90;;;;;;5069708;28;20394;-81
2021/08/27 05:20:01;;;;;;;3.95;2.10;;;14.70;99.90;;;;;;5068307;28;20393;-79
2021/08/27 05:22:27;;;;;;;2.20;1.90;;;14.70;99.90;;;;;;5069965;28;20381;-81
2021/08/27 05:24:53;;;;;;;3.03;1.80;;;14.70;99.90;;;;;;5051421;28;20378;-80
2021/08/27 05:27:18;;;;;;;1.60;1.50;;;14.80;99.90;;;;;;5067552;28;20370;-79
2021/08/27 05:29:44;;;;;;;1.70;1.60;;;14.80;99.90;;;;;;5050235;28;20378;-81
2021/08/27 05:32:10;;;;;;;2.00;1.60;;;14.80;99.90;;;;;;5069402;28;20378;-80
2021/08/27 05:34:35;;;;;;;1.70;1.50;;;14.80;99.90;;;;;;5068105;28;21005;-78
2021/08/27 05:37:01;;;;;;;1.85;1.50;;;14.80;99.90;;;;;;5068930;28;20815;-80
2021/08/27 05:39:28;;;;;;;1.27;1.13;;;14.90;99.90;;;;;;5068371;28;20529;-80
2021/08/27 05:41:55;;;;;;;1.55;1.35;;;15.00;99.90;;;;;;5068820;28;20396;-81
2021/08/27 05:44:21;;;;;;;2.83;1.40;;;15.10;99.90;;;;;;5069620;28;20371;-82
2021/08/27 05:46:47;;;;;;;1.90;1.40;;;15.20;99.90;;;;;;5069102;28;20380;-81
2021/08/27 05:49:13;;;;;;;1.90;1.20;;;15.30;99.90;;;;;;5069006;28;20382;-78
2021/08/27 05:51:38;;;;;;;1.30;1.20;;;15.40;99.90;;;;;;5050636;28;20823;-80
2021/08/27 05:54:04;;;;;;;1.30;1.20;;;15.50;99.90;;;;;;5067380;28;20388;-82
2021/08/27 05:56:30;;;;;;;1.77;1.20;;;15.50;99.90;;;;;;5066698;28;20374;-79
2021/08/27 05:58:56;;;;;;;1.35;1.10;;;15.50;99.90;;;;;;5066744;28;20848;-80
2021/08/27 06:01:21;;;;;;;1.25;1.10;;;15.60;99.90;;;;;;5067061;28;20410;-80
2021/08/27 06:03:47;;;;;;;1.23;1.10;;;15.60;99.90;;;;;;5066226;28;20377;-81
2021/08/27 06:06:12;;;;;;;1.42;1.10;;;15.60;99.90;;;;;;5067404;28;20388;-79
2021/08/27 06:08:38;;;;;;;2.67;1.10;;;15.60;99.90;;;;;;5068285;28;20858;-82
2021/08/27 06:11:04;;;;;;;1.70;1.30;;;15.70;99.90;;;;;;5067786;28;20401;-81
2021/08/27 06:13:29;;;;;;;1.70;1.03;;;15.60;99.90;;;;;;5070030;28;20424;-79
2021/08/27 06:15:56;;;;;;;2.50;1.20;;;15.50;99.90;;;;;;5067880;28;20398;-79
2021/08/27 06:18:22;;;;;;;1.55;1.00;;;15.50;99.90;;;;;;5067840;28;20410;-80
2021/08/27 06:20:50;;;;;;;1.60;1.10;;;15.40;99.90;;;;;;5067826;28;20897;-80
2021/08/27 06:23:15;;;;;;;1.10;1.00;;;15.50;99.90;;;;;;5067416;28;20460;-79
2021/08/27 06:25:41;;;;;;;3.15;1.17;;;15.50;99.90;;;;;;5067247;28;20894;-81
2021/08/27 06:28:07;;;;;;;1.08;0.98;;;15.60;99.90;;;;;;5053241;28;20790;-80
2021/08/27 06:30:32;;;;;;;1.70;0.90;;;15.50;99.90;;;;;;5050393;28;21486;-79
2021/08/27 06:32:58;;;;;;;1.67;0.82;;;15.60;99.90;;;;;;5068576;28;20393;-77
2021/08/27 06:35:24;;;;;;;1.30;0.90;;;15.70;99.90;;;;;;5068569;28;20398;-80
2021/08/27 06:40:34;;;;;;;2.08;0.95;;;15.70;99.90;;;;;;5068232;28;20473;-81
2021/08/27 06:42:59;;;;;;;1.63;0.90;;;15.80;99.90;;;;;;5068662;28;20445;-83
2021/08/27 06:45:25;;;;;;;1.25;0.80;;;16.00;99.90;;;;;;5068507;28;20401;-80
2021/08/27 06:47:51;;;;;;;1.80;0.83;;;16.20;99.90;;;;;;5067776;28;20385;-77
2021/08/27 06:50:16;;;;;;;1.73;0.90;;;16.30;99.90;;;;;;5067334;28;20740;-80
2021/08/27 06:52:42;;;;;;;1.97;0.70;;;16.30;99.90;;;;;;5067170;28;20427;-79
2021/08/27 06:55:08;;;;;;;0.77;0.77;;;16.50;99.90;;;;;;5068231;28;20393;-78
2021/08/27 06:57:33;;;;;;;0.80;0.70;;;16.60;99.90;;;;;;5050237;28;20409;-79
2021/08/27 06:59:59;;;;;;;0.83;0.70;;;16.50;99.90;;;;;;5067740;28;20760;-81
2021/08/27 07:02:25;;;;;;;0.80;0.70;;;16.80;99.90;;;;;;5050186;28;20457;-81
2021/08/27 07:04:50;;;;;;;0.87;0.70;;;17.20;99.90;;;;;;5068138;28;20382;-82
2021/08/27 07:07:16;;;;;;;1.00;0.90;;;17.60;99.90;;;;;;5067727;28;20398;-79
2021/08/27 07:09:41;;;;;;;0.90;0.60;;;17.70;99.90;;;;;;5063382;28;20390;-82
2021/08/27 07:12:11;;;;;;;3.10;1.05;;;17.30;99.90;;;;;;5064233;28;20382;-80
2021/08/27 07:14:37;;;;;;;1.30;0.90;;;17.00;99.90;;;;;;5069363;28;20385;-79
2021/08/27 07:17:03;;;;;;;1.40;0.90;;;16.80;99.90;;;;;;5071516;28;20402;-82
2021/08/27 07:19:28;;;;;;;0.90;0.80;;;16.70;99.90;;;;;;5071980;28;20382;-80
2021/08/27 07:21:54;;;;;;;1.30;0.80;;;16.50;99.90;;;;;;5072244;28;20856;-81
2021/08/27 07:24:19;;;;;;;0.90;0.75;;;16.40;99.90;;;;;;5073263;28;20389;-78
2021/08/27 07:26:45;;;;;;;0.97;0.77;;;16.30;99.90;;;;;;5070990;28;20378;-81
2021/08/27 07:29:11;;;;;;;1.47;0.80;;;16.40;99.90;;;;;;5053888;28;20389;-81
2021/08/27 07:31:37;;;;;;;1.20;0.70;;;16.80;99.90;;;;;;5071512;28;20420;-77
2021/08/27 07:34:02;;;;;;;1.10;0.70;;;17.30;99.90;;;;;;5071841;28;20852;-82
2021/08/27 07:36:28;;;;;;;1.03;0.70;;;17.70;99.90;;;;;;5071732;28;20382;-81
2021/08/27 07:38:54;;;;;;;0.88;0.70;;;17.50;99.90;;;;;;5073376;28;20385;-79
2021/08/27 07:41:19;;;;;;;1.17;0.60;;;17.60;99.90;;;;;;5054497;28;20381;-83
2021/08/27 07:43:45;;;;;;;1.20;0.70;;;17.40;99.90;;;;;;5072624;28;20473;-77
2021/08/27 07:46:10;;;;;;;0.77;0.70;;;17.10;99.90;;;;;;5072311;28;20374;-81
2021/08/27 07:48:36;;;;;;;1.30;0.80;;;16.70;99.90;;;;;;5072386;28;20384;-80
2021/08/27 07:51:01;;;;;;;0.80;0.63;;;16.40;99.90;;;;;;5072055;28;20397;-77
2021/08/27 07:53:27;;;;;;;0.85;0.60;;;16.40;99.90;;;;;;5053140;28;20390;-80
2021/08/27 07:55:53;;;;;;;1.77;0.90;;;16.20;99.90;;;;;;5071733;28;20361;-80
2021/08/27 07:58:18;;;;;;;1.40;0.80;;;16.30;99.90;;;;;;5070428;28;20451;-78
2021/08/27 08:00:45;;;;;;;1.60;0.70;;;16.30;99.90;;;;;;5053481;28;20943;-80
2021/08/27 08:03:10;;;;;;;1.38;0.68;;;16.50;99.90;;;;;;5072331;28;20371;-81
2021/08/27 08:05:36;;;;;;;2.67;0.70;;;16.40;99.90;;;;;;5072607;28;20887;-79
2021/08/27 08:08:02;;;;;;;0.80;0.73;;;16.40;99.90;;;;;;5071004;28;20740;-80
2021/08/27 08:10:27;;;;;;;1.98;0.75;;;16.60;99.90;;;;;;5055106;28;20382;-79
2021/08/27 08:12:53;;;;;;;2.43;0.60;;;16.70;99.90;;;;;;5071595;28;20444;-81
2021/08/27 08:15:21;;;;;;;1.52;0.60;;;16.80;99.90;;;;;;5072466;28;20465;-79
2021/08/27 08:17:46;;;;;;;0.60;0.60;;;17.00;99.90;;;;;;5071789;28;20402;-80
2021/08/27 08:20:13;;;;;;;0.80;0.60;;;17.30;99.90;;;;;;5070776;28;20390;-79
2021/08/27 08:22:38;;;;;;;0.95;0.60;;;17.20;99.90;;;;;;5054447;28;20470;-80
2021/08/27 08:25:04;;;;;;;0.70;0.60;;;17.30;99.90;;;;;;5052470;28;20883;-79
2021/08/27 08:27:33;;;;;;;2.20;0.73;;;17.50;99.90;;;;;;5070834;28;20564;-78
2021/08/27 08:30:00;;;;;;;0.75;0.60;;;17.70;99.90;;;;;;5071995;28;20448;-80
2021/08/27 08:32:25;;;;;;;0.70;0.60;;;17.70;99.90;;;;;;5053221;28;20406;-82
2021/08/27 08:34:51;;;;;;;1.17;0.70;;;17.60;99.90;;;;;;5053662;28;20953;-77
2021/08/27 08:37:16;;;;;;;0.80;0.60;;;17.30;99.90;;;;;;5072291;28;20405;-78
2021/08/27 08:39:42;;;;;;;0.77;0.60;;;17.00;99.90;;;;;;5071687;28;20461;-81
2021/08/27 08:42:08;;;;;;;1.83;0.80;;;16.90;99.90;;;;;;5070747;28;20390;-78
2021/08/27 08:44:34;;;;;;;2.22;0.77;;;16.90;99.90;;;;;;5051877;28;20445;-79
2021/08/27 08:47:02;;;;;;;1.08;0.80;;;16.70;99.90;;;;;;5071803;28;20378;-77
2021/08/27 08:49:29;;;;;;;1.70;0.70;;;16.60;99.90;;;;;;5071041;28;20862;-79
2021/08/27 08:51:56;;;;;;;0.70;0.70;;;16.80;99.90;;;;;;5071774;28;20389;-80
2021/08/27 08:54:22;;;;;;;0.70;0.60;;;17.00;99.90;;;;;;5056604;28;20401;-78
2021/08/27 08:56:48;;;;;;;1.38;0.75;;;17.20;99.90;;;;;;5073619;28;20459;-79
2021/08/27 08:59:14;;;;;;;1.15;0.60;;;17.40;99.90;;;;;;5071858;28;20767;-80
2021/08/27 09:01:40;;;;;;;1.50;0.60;;;17.90;99.90;;;;;;5072627;28;20451;-77
2021/08/27 09:04:06;;;;;;;0.98;0.70;;;18.20;99.90;;;;;;5070913;28;20370;-77
2021/08/27 09:06:34;;;;;;;0.70;0.70;;;18.30;99.90;;;;;;5053034;28;20382;-80
2021/08/27 09:09:02;;;;;;;1.02;0.60;;;18.60;99.90;;;;;;5054527;28;20732;-79
2021/08/27 09:11:28;;;;;;;1.08;0.68;;;18.90;99.90;;;;;;5072271;28;20470;-78
2021/08/27 09:14:03;;;;;;;2.10;0.60;;;19.10;99.90;;;;;;5069716;28;20405;-81
2021/08/27 09:16:32;;;;;;;0.60;0.60;;;19.30;99.90;;;;;;5053122;28;20390;-79
2021/08/27 09:18:58;;;;;;;0.57;0.57;;;19.20;99.90;;;;;;5068453;28;20463;-78
2021/08/27 09:21:34;;;;;;;1.30;0.60;;;19.00;99.90;;;;;;5067153;28;20398;-79
2021/08/27 09:24:35;;;;;;;1.52;0.60;;;19.00;99.90;;;;;;5050305;28;20402;-79
2021/08/27 09:27:04;;;;;;;1.00;0.60;;;18.90;99.90;;;;;;5062880;28;20409;-79
2021/08/27 09:29:50;;;;;;;0.90;0.47;;;18.70;99.90;;;;;;5235766;22;20892;-80
2021/08/27 09:32:28;;;;;;;0.70;0.40;;;18.20;99.90;;;;;;5087131;28;20393;-79
2021/08/27 09:35:02;;;;;;;0.70;0.40;;;18.00;99.90;;;;;;5059276;28;20381;-79
2021/08/27 09:37:57;;;;;;;0.88;0.38;;;17.80;99.90;;;;;;5076959;28;20805;-82
2021/08/27 09:40:32;;;;;;;0.90;0.38;;;17.80;99.90;;;;;;5069609;28;20376;-79
2021/08/27 09:42:59;;;;;;;0.50;0.40;;;17.80;99.90;;;;;;5080948;28;20391;-78
2021/08/27 09:45:45;;;;;;;0.55;0.40;;;17.70;99.90;;;;;;5086688;28;20388;-79
2021/08/27 09:48:13;;;;;;;0.55;0.32;;;17.70;99.90;;;;;;5090578;28;20388;-78
2021/08/27 09:50:51;;;;;;;0.30;0.30;;;18.00;99.90;;;;;;5070660;28;20385;-81
2021/08/27 09:53:18;;;;;;;0.40;0.40;;;18.00;99.90;;;;;;5067699;28;20840;-81
2021/08/27 09:55:57;;;;;;;0.63;0.32;;;17.90;99.90;;;;;;5089193;28;20409;-78
2021/08/27 09:58:23;;;;;;;1.35;0.40;;;18.10;99.90;;;;;;5090295;28;20411;-78
2021/08/27 10:01:04;;;;;;;1.20;0.47;;;18.30;99.90;;;;;;5069744;28;20455;-79
2021/08/27 10:03:30;;;;;;;1.30;0.50;;;18.50;99.90;;;;;;5085625;28;20472;-81
2021/08/27 10:05:55;;;;;;;1.83;0.47;;;18.70;99.90;;;;;;5090850;28;20455;-77
2021/08/27 10:08:28;;;;;;;0.43;0.40;;;18.60;99.90;;;;;;5090525;28;21040;-80
2021/08/27 10:11:14;;;;;;;0.63;0.20;;;18.50;99.90;;;;;;5090805;28;20409;-78
2021/08/27 10:13:40;;;;;;;0.40;0.40;;;18.40;99.90;;;;;;5089284;28;20389;-78
2021/08/27 10:16:07;;;;;;;0.30;0.30;;;18.20;99.90;;;;;;5089775;28;20456;-78
2021/08/27 10:18:33;;;;;;;0.80;0.60;;;18.10;99.90;;;;;;5064371;28;20414;-77
2021/08/27 10:20:59;;;;;;;1.08;0.40;;;18.20;99.90;;;;;;5086919;28;20738;-78
2021/08/27 10:23:24;;;;;;;0.30;0.30;;;18.20;99.90;;;;;;5091248;28;20368;-79
2021/08/27 10:25:52;;;;;;;0.40;0.40;;;18.30;99.90;;;;;;5079512;28;20394;-79
2021/08/27 10:28:18;;;;;;;2.77;0.50;;;18.40;99.90;;;;;;5064513;28;20500;-80
2021/08/27 10:30:54;;;;;;;1.02;0.30;;;18.50;99.90;;;;;;5062986;28;20392;-78
2021/08/27 10:33:42;;;;;;;0.80;0.30;;;18.80;99.90;;;;;;5068562;28;20750;-81
2021/08/27 10:36:21;;;;;;;0.77;0.28;;;19.10;99.90;;;;;;5090446;28;20482;-78
2021/08/27 10:38:50;;;;;;;0.30;0.30;;;19.10;99.90;;;;;;5089557;28;20406;-81
2021/08/27 10:41:37;;;;;;;0.30;0.30;;;18.90;99.90;;;;;;5068443;28;20488;-78
2021/08/27 10:44:06;;;;;;;0.40;0.40;;;18.80;99.90;;;;;;5069497;28;20376;-79
2021/08/27 10:46:46;;;;;;;0.98;0.40;;;18.70;99.90;;;;;;5080444;28;20378;-77
2021/08/27 10:49:16;;;;;;;0.40;0.30;;;18.80;99.90;;;;;;5091337;28;20379;-77
2021/08/27 10:51:44;;;;;;;1.15;0.30;;;19.10;99.90;;;;;;5085113;28;20402;-77
2021/08/27 10:54:11;;;;;;;0.30;0.30;;;18.90;99.90;;;;;;5071283;28;20411;-79
2021/08/27 10:56:52;;;;;;;0.90;0.30;;;19.10;99.90;;;;;;5061042;28;20394;-81
2021/08/27 10:59:22;;;;;;;0.50;0.30;;;18.90;99.90;;;;;;5065756;28;20478;-76
2021/08/27 11:02:01;;;;;;;0.40;0.30;;;19.00;99.90;;;;;;5062744;28;20398;-78
2021/08/27 11:04:28;;;;;;;0.30;0.30;;;19.00;99.90;;;;;;5086812;28;20388;-77
2021/08/27 11:07:18;;;;;;;0.80;0.40;;;18.90;99.90;;;;;;5089049;28;20889;-78
2021/08/27 11:09:59;;;;;;;1.23;0.40;;;18.90;99.90;;;;;;5077400;28;20396;-81
2021/08/27 11:12:29;;;;;;;0.52;0.40;;;19.10;99.90;;;;;;5068177;28;20385;-79
2021/08/27 11:15:16;;;;;;;0.20;0.20;;;19.10;99.90;;;;;;5087931;28;20754;-80
2021/08/27 11:17:41;;;;;;;1.23;0.40;;;19.20;99.90;;;;;;5064677;28;20420;-79
2021/08/27 11:20:08;;;;;;;0.70;0.40;;;19.30;99.90;;;;;;5069847;28;20416;-78
2021/08/27 11:22:33;;;;;;;0.60;0.45;;;19.40;99.90;;;;;;5077343;28;20484;-81
2021/08/27 11:25:02;;;;;;;0.40;0.40;;;19.50;99.90;;;;;;5088995;28;20460;-78
2021/08/27 11:27:28;;;;;;;1.33;0.50;;;19.40;99.90;;;;;;5078619;28;20378;-77
2021/08/27 11:29:55;;;;;;;2.97;0.90;;;19.10;99.90;;;;;;5088088;28;20433;-79
2021/08/27 11:32:23;;;;;;;1.35;0.40;;;18.90;99.90;;;;;;5085856;28;20384;-78
2021/08/27 11:34:50;;;;;;;1.25;0.40;;;18.80;99.90;;;;;;5089382;28;20380;-81
2021/08/27 11:37:28;;;;;;;0.40;0.40;;;18.90;99.90;;;;;;5076628;28;20397;-80
2021/08/27 11:39:55;;;;;;;0.50;0.50;;;19.10;99.90;;;;;;5087232;28;20484;-81
2021/08/27 11:42:22;;;;;;;0.40;0.40;;;19.80;99.90;;;;;;5068333;28;20384;-81
2021/08/27 11:45:09;;;;;;;0.35;0.35;;;20.20;99.90;;;;;;5058159;28;20374;-79
2021/08/27 11:47:43;;;;;;;3.03;0.40;;;20.50;99.90;;;;;;5050511;28;20382;-79
2021/08/27 11:50:13;;;;;;;0.60;0.40;;;20.70;99.90;;;;;;5080027;28;20388;-82
2021/08/27 11:52:53;;;;;;;0.50;0.40;;;20.50;99.90;;;;;;5091881;28;20419;-81
2021/08/27 11:55:19;;;;;;;0.50;0.50;;;19.90;99.90;;;;;;5072241;28;20912;-79
2021/08/27 11:57:53;;;;;;;0.50;0.50;;;19.00;99.90;;;;;;5089432;28;20447;-78
2021/08/27 12:00:51;;;;;;;0.98;0.52;;;18.60;99.90;;;;;;5089855;28;20409;-83
2021/08/27 12:03:20;;;;;;;0.93;0.57;;;18.40;99.90;;;;;;5075058;28;20419;-79
2021/08/27 12:05:49;;;;;;;0.45;0.40;;;18.00;99.90;;;;;;5073901;28;20364;-78
2021/08/27 12:08:15;;;;;;;1.30;0.50;;;17.80;99.90;;;;;;5082034;28;20384;-78
2021/08/27 12:10:43;;;;;;;0.60;0.60;;;17.80;99.90;;;;;;5076081;28;20454;-79
2021/08/27 12:13:11;;;;;;;0.70;0.70;;;17.70;99.90;;;;;;5090897;28;20392;-80
2021/08/27 12:15:44;;;;;;;0.57;0.55;;;17.60;99.90;;;;;;5072570;28;20441;-77
2021/08/27 12:18:15;;;;;;;0.70;0.50;;;17.80;99.90;;;;;;5091173;28;20404;-81
2021/08/27 12:20:43;;;;;;;0.73;0.52;;;17.70;99.90;;;;;;5091620;28;20376;-82
2021/08/27 12:23:16;;;;;;;1.10;0.60;;;17.90;99.90;;;;;;5073304;28;20383;-80
2021/08/27 12:25:45;;;;;;;0.80;0.80;;;18.10;99.90;;;;;;5091335;28;20861;-78
2021/08/27 12:28:14;;;;;;;0.70;0.70;;;18.20;99.90;;;;;;5089088;28;20886;-80
2021/08/27 12:30:47;;;;;;;1.10;0.80;;;18.60;99.90;;;;;;5090243;28;20392;-82
2021/08/27 12:33:14;;;;;;;2.13;0.80;;;18.70;99.90;;;;;;5089014;28;20377;-79
2021/08/27 12:35:49;;;;;;;0.68;0.68;;;18.70;99.90;;;;;;5079435;28;20384;-80
2021/08/27 12:38:16;;;;;;;0.80;0.80;;;18.90;99.90;;;;;;5088246;28;20400;-80
2021/08/27 12:40:42;;;;;;;2.67;0.80;;;19.20;99.90;;;;;;5085056;28;20436;-78
2021/08/27 12:43:23;;;;;;;0.75;0.73;;;19.10;99.90;;;;;;5086059;28;20395;-80
2021/08/27 12:45:54;;;;;;;1.48;1.17;;;18.70;99.90;;;;;;5091158;28;20395;-82
2021/08/27 12:48:21;;;;;;;3.15;1.70;;;18.00;99.90;;;;;;5090930;28;20387;-80
2021/08/27 12:50:53;;;;;;;2.10;1.90;;;17.70;99.90;;;;;;5072658;28;20843;-80
2021/08/27 12:53:31;;;;;;;1.85;1.75;;;17.20;99.90;;;;;;5087556;28;20399;-77
2021/08/27 12:56:11;;;;;;;2.35;1.98;;;17.20;99.90;;;;;;5089097;28;20384;-80